Item Display Status Humidity-temperature Sensor

Elevation Above Sea Level: 3 m

 

Deployed Sensor

  • Serial Number: 20351223
  • NDBC Property Number: 43289
  • Start Date: 1/10/2021 (10:55:29 Z)
  • End Date: Currently Active
Relative Humidity [%]     6 entries per hour
Showing data from 10/18/2021 (11:00:00 Z) to 10/17/2021 (00:00:01 Z)
Previous Next [ Day | 3-Days | 7-Days ]
First Last
Prev [ Day | 3-Days | 7-Days ] Next
First Last

Start Time:     :
End Time:     :     
Time (in GMT) :00 :50 :40 :30 :20 :10
Previous Next [ Day | 3-Days | 7-Days ]
First Last
Prev [ Day | 3-Days | 7-Days ] Next
First Last


123 => good data
MM => data is determined as missing
-- => data not received/configured
Back to Top Back to Top
10/18/2021 11:00 to 10:10 89.82 88.10 90.12 88.78 89.86 90.87
10/18/2021 10:00 to 9:10 91.61 91.57 92.97 93.24 91.51 91.51
10/18/2021 09:00 to 8:10 92.10 91.90 91.82 91.79 91.22 91.13
10/18/2021 08:00 to 7:10 91.49 91.30 91.07 91.05 90.78 91.24
10/18/2021 07:00 to 6:10 91.30 91.30 91.36 91.30 91.26 91.86
10/18/2021 06:00 to 5:10 92.19 91.84 92.50 92.91 93.07 93.46
10/18/2021 05:00 to 4:10 93.34 93.49 93.49 94.25 94.33 94.64
10/18/2021 04:00 to 3:10 94.91 94.43 94.39 94.45 94.64 95.03
10/18/2021 03:00 to 2:10 94.89 94.95 95.22 94.76 94.47 94.21
10/18/2021 02:00 to 1:10 94.64 94.66 94.87 94.78 94.70 94.39
10/18/2021 01:00 to 0:10 94.21 94.56 94.64 94.23 94.14 94.14
10/18/2021 00:00 to 23:10 93.42 92.99 91.86 91.67 91.42 87.86
10/17/2021 23:00 to 22:10 84.33 91.63 91.67 90.97 92.04 93.71
10/17/2021 22:00 to 21:10 96.23 94.74 93.18 93.16 93.05 92.78
10/17/2021 21:00 to 20:10 93.18 93.84 94.95 96.52 98.72 100.21
10/17/2021 20:00 to 19:10 100.58 100.43 100.29 100.19 99.86 99.59
10/17/2021 19:00 to 18:10 99.53 99.61 99.03 98.08 97.07 96.54
10/17/2021 18:00 to 17:10 95.46 95.57 95.48 95.07 94.78 94.52
10/17/2021 17:00 to 16:10 94.39 94.43 94.37 94.78 95.48 95.63
10/17/2021 16:00 to 15:10 95.98 96.17 96.54 96.06 94.27 93.75
10/17/2021 15:00 to 14:10 94.45 95.18 94.72 93.98 93.09 92.41
10/17/2021 14:00 to 13:10 93.55 95.15 97.11 97.07 95.42 95.88
10/17/2021 13:00 to 12:10 96.29 96.64 96.70 96.43 96.33 95.92
10/17/2021 12:00 to 11:10 95.71 95.11 95.22 94.76 94.85 95.34
10/17/2021 11:00 to 10:10 97.15 98.49 99.07 98.78 98.12 96.99
10/17/2021 10:00 to 9:10 95.30 94.47 94.43 94.50 94.50 94.62
10/17/2021 09:00 to 8:10 95.26 95.51 95.51 95.42 95.15 94.56
10/17/2021 08:00 to 7:10 94.31 94.04 94.19 93.81 93.05 92.41
10/17/2021 07:00 to 6:10 91.71 90.43 90.00 90.95 90.91 92.83
10/17/2021 06:00 to 5:10 93.88 93.65 93.01 89.36 86.97 89.28
10/17/2021 05:00 to 4:10 93.24 92.93 93.22 95.38 96.33 95.61
10/17/2021 04:00 to 3:10 93.44 93.32 93.01 93.32 93.28 92.43
10/17/2021 03:00 to 2:10 92.27 91.84 91.94 91.24 90.89 92.17
10/17/2021 02:00 to 1:10 94.52 94.76 96.02 95.71 94.50 93.98
10/17/2021 01:00 to 0:10 94.19 94.87 93.13 91.90 91.44 91.53

 

 

 

Air Temperature [°C]     6 entries per hour
Showing data from 10/18/2021 (11:00:00 Z) to 10/17/2021 (00:00:01 Z)
Previous Next [ Day | 3-Days | 7-Days ]
First Last
Prev [ Day | 3-Days | 7-Days ] Next
First Last

Start Time:     :
End Time:     :     
Time (in GMT) :00 :50 :40 :30 :20 :10
Previous Next [ Day | 3-Days | 7-Days ]
First Last
Prev [ Day | 3-Days | 7-Days ] Next
First Last


123 => good data
MM => data is determined as missing
-- => data not received/configured
Back to Top Back to Top
10/18/2021 11:00 to 10:10 23.02 23.45 23.41 23.39 23.39 23.37
10/18/2021 10:00 to 9:10 23.37 23.36 23.25 23.37 23.28 23.33
10/18/2021 09:00 to 8:10 23.30 23.28 23.35 23.34 23.36 23.38
10/18/2021 08:00 to 7:10 23.31 23.37 23.35 23.43 23.41 23.43
10/18/2021 07:00 to 6:10 23.41 23.38 23.37 23.38 23.34 23.36
10/18/2021 06:00 to 5:10 23.33 23.31 23.27 23.32 23.30 23.24
10/18/2021 05:00 to 4:10 23.26 23.29 23.22 23.23 23.17 23.21
10/18/2021 04:00 to 3:10 23.23 23.19 23.22 23.20 23.14 23.16
10/18/2021 03:00 to 2:10 23.04 23.07 23.08 23.06 23.01 23.05
10/18/2021 02:00 to 1:10 22.95 22.94 22.91 22.87 22.92 22.91
10/18/2021 01:00 to 0:10 22.93 22.90 22.91 22.90 22.90 22.92
10/18/2021 00:00 to 23:10 22.96 23.00 23.03 23.00 22.96 23.24
10/17/2021 23:00 to 22:10 22.95 22.69 22.75 22.74 22.61 22.45
10/17/2021 22:00 to 21:10 22.29 22.57 22.68 22.67 22.63 22.69
10/17/2021 21:00 to 20:10 22.48 22.42 22.23 21.95 21.65 21.33
10/17/2021 20:00 to 19:10 21.71 21.56 21.93 21.88 21.92 21.94
10/17/2021 19:00 to 18:10 22.00 22.01 21.96 22.07 22.33 22.19
10/17/2021 18:00 to 17:10 22.41 22.85 22.90 22.92 22.90 22.91
10/17/2021 17:00 to 16:10 22.89 22.82 22.74 22.70 22.60 22.52
10/17/2021 16:00 to 15:10 22.61 22.48 22.23 22.42 22.72 22.74
10/17/2021 15:00 to 14:10 22.57 22.54 22.69 22.70 22.62 22.54
10/17/2021 14:00 to 13:10 22.40 22.12 21.62 21.83 22.43 22.49
10/17/2021 13:00 to 12:10 22.49 22.46 22.39 22.31 22.32 22.39
10/17/2021 12:00 to 11:10 22.46 22.43 22.35 22.38 22.31 22.33
10/17/2021 11:00 to 10:10 21.96 21.92 21.78 21.65 21.52 21.76
10/17/2021 10:00 to 9:10 22.71 22.91 22.90 22.96 22.91 22.87
10/17/2021 09:00 to 8:10 22.89 22.85 22.96 22.92 22.91 22.93
10/17/2021 08:00 to 7:10 22.98 22.95 23.02 23.09 23.12 23.09
10/17/2021 07:00 to 6:10 23.15 23.14 23.04 22.86 22.73 22.37
10/17/2021 06:00 to 5:10 22.22 22.05 22.40 23.19 23.35 22.85
10/17/2021 05:00 to 4:10 22.55 22.82 22.71 22.34 22.21 22.31
10/17/2021 04:00 to 3:10 23.07 23.26 23.16 23.10 23.12 23.06
10/17/2021 03:00 to 2:10 23.14 23.21 23.25 23.33 23.18 23.09
10/17/2021 02:00 to 1:10 23.17 23.03 22.90 22.85 23.02 23.12
10/17/2021 01:00 to 0:10 23.03 22.87 22.96 23.18 23.26 23.21